sensor_id;sensor_type;location;lat;lon;timestamp;temperature;humidity
22114;DHT22;11223;49.968;9.062;2023-04-29T00:01:07;11.40;99.90
22114;DHT22;11223;49.968;9.062;2023-04-29T00:03:33;11.40;99.90
22114;DHT22;11223;49.968;9.062;2023-04-29T00:05:59;11.50;99.90
22114;DHT22;11223;49.968;9.062;2023-04-29T00:08:25;11.50;99.90
22114;DHT22;11223;49.968;9.062;2023-04-29T00:10:51;11.50;99.90
22114;DHT22;11223;49.968;9.062;2023-04-29T00:13:16;11.50;99.90
22114;DHT22;11223;49.968;9.062;2023-04-29T00:15:42;11.50;99.90
22114;DHT22;11223;49.968;9.062;2023-04-29T00:18:08;11.50;99.90
22114;DHT22;11223;49.968;9.062;2023-04-29T00:20:35;11.50;99.90
22114;DHT22;11223;49.968;9.062;2023-04-29T00:23:02;11.50;99.90
22114;DHT22;11223;49.968;9.062;2023-04-29T00:25:28;11.50;99.90
22114;DHT22;11223;49.968;9.062;2023-04-29T00:27:53;11.50;99.90
22114;DHT22;11223;49.968;9.062;2023-04-29T00:30:19;11.60;99.90
22114;DHT22;11223;49.968;9.062;2023-04-29T00:32:44;11.50;99.90
22114;DHT22;11223;49.968;9.062;2023-04-29T00:35:11;11.50;99.90
22114;DHT22;11223;49.968;9.062;2023-04-29T00:37:36;11.50;99.90
22114;DHT22;11223;49.968;9.062;2023-04-29T00:40:02;11.50;99.90
22114;DHT22;11223;49.968;9.062;2023-04-29T00:42:30;11.60;99.90
22114;DHT22;11223;49.968;9.062;2023-04-29T00:44:57;11.50;99.90
22114;DHT22;11223;49.968;9.062;2023-04-29T00:47:23;11.50;99.90
22114;DHT22;11223;49.968;9.062;2023-04-29T00:49:48;11.50;99.90
22114;DHT22;11223;49.968;9.062;2023-04-29T00:52:14;11.50;99.90
22114;DHT22;11223;49.968;9.062;2023-04-29T00:54:42;11.60;99.90
22114;DHT22;11223;49.968;9.062;2023-04-29T00:57:08;11.50;99.90
22114;DHT22;11223;49.968;9.062;2023-04-29T00:59:34;11.50;99.90
22114;DHT22;11223;49.968;9.062;2023-04-29T01:02:01;11.60;99.90
22114;DHT22;11223;49.968;9.062;2023-04-29T01:04:31;11.50;99.90
22114;DHT22;11223;49.968;9.062;2023-04-29T01:12:44;11.40;99.90
22114;DHT22;11223;49.968;9.062;2023-04-29T01:17:56;11.40;99.90
22114;DHT22;11223;49.968;9.062;2023-04-29T01:20:25;11.30;99.90
22114;DHT22;11223;49.968;9.062;2023-04-29T01:22:51;11.30;99.90
22114;DHT22;11223;49.968;9.062;2023-04-29T01:25:17;11.30;99.90
22114;DHT22;11223;49.968;9.062;2023-04-29T01:36:32;11.20;99.90
22114;DHT22;11223;49.968;9.062;2023-04-29T01:39:19;11.20;99.90
22114;DHT22;11223;49.968;9.062;2023-04-29T01:42:07;11.20;99.90
22114;DHT22;11223;49.968;9.062;2023-04-29T01:44:35;11.20;99.90
22114;DHT22;11223;49.968;9.062;2023-04-29T01:47:02;11.20;99.90
22114;DHT22;11223;49.968;9.062;2023-04-29T01:49:29;11.10;99.90
22114;DHT22;11223;49.968;9.062;2023-04-29T01:51:59;11.10;99.90
22114;DHT22;11223;49.968;9.062;2023-04-29T01:54:25;11.10;99.90
22114;DHT22;11223;49.968;9.062;2023-04-29T01:56:50;11.10;99.90
22114;DHT22;11223;49.968;9.062;2023-04-29T01:59:16;11.20;99.90
22114;DHT22;11223;49.968;9.062;2023-04-29T02:01:42;11.20;99.90
22114;DHT22;11223;49.968;9.062;2023-04-29T02:04:08;11.20;99.90
22114;DHT22;11223;49.968;9.062;2023-04-29T02:06:33;11.20;99.90
22114;DHT22;11223;49.968;9.062;2023-04-29T02:08:59;11.20;99.90
22114;DHT22;11223;49.968;9.062;2023-04-29T02:11:24;11.20;99.90
22114;DHT22;11223;49.968;9.062;2023-04-29T02:13:50;11.20;99.90
22114;DHT22;11223;49.968;9.062;2023-04-29T02:16:16;11.20;99.90
22114;DHT22;11223;49.968;9.062;2023-04-29T02:18:42;11.30;99.90
22114;DHT22;11223;49.968;9.062;2023-04-29T02:21:07;11.30;99.90
22114;DHT22;11223;49.968;9.062;2023-04-29T02:23:34;11.20;99.90
22114;DHT22;11223;49.968;9.062;2023-04-29T02:25:59;11.20;99.90
22114;DHT22;11223;49.968;9.062;2023-04-29T02:28:26;11.30;99.90
22114;DHT22;11223;49.968;9.062;2023-04-29T02:30:51;11.30;99.90
22114;DHT22;11223;49.968;9.062;2023-04-29T02:33:17;11.20;99.90
22114;DHT22;11223;49.968;9.062;2023-04-29T02:35:43;11.20;99.90
22114;DHT22;11223;49.968;9.062;2023-04-29T02:38:09;11.20;99.90
22114;DHT22;11223;49.968;9.062;2023-04-29T02:40:40;11.20;99.90
22114;DHT22;11223;49.968;9.062;2023-04-29T02:43:06;11.20;99.90
22114;DHT22;11223;49.968;9.062;2023-04-29T02:45:32;11.20;99.90
22114;DHT22;11223;49.968;9.062;2023-04-29T02:47:57;11.20;99.90
22114;DHT22;11223;49.968;9.062;2023-04-29T02:50:23;11.20;99.90
22114;DHT22;11223;49.968;9.062;2023-04-29T02:52:49;11.20;99.90
22114;DHT22;11223;49.968;9.062;2023-04-29T02:55:16;11.20;99.90
22114;DHT22;11223;49.968;9.062;2023-04-29T02:57:43;11.20;99.90
22114;DHT22;11223;49.968;9.062;2023-04-29T03:00:09;11.20;99.90
22114;DHT22;11223;49.968;9.062;2023-04-29T03:02:35;11.20;99.90
22114;DHT22;11223;49.968;9.062;2023-04-29T03:05:02;11.20;99.90
22114;DHT22;11223;49.968;9.062;2023-04-29T03:07:27;11.20;99.90
22114;DHT22;11223;49.968;9.062;2023-04-29T03:09:54;11.20;99.90
22114;DHT22;11223;49.968;9.062;2023-04-29T03:12:20;11.20;99.90
22114;DHT22;11223;49.968;9.062;2023-04-29T03:14:46;11.20;99.90
22114;DHT22;11223;49.968;9.062;2023-04-29T03:17:12;11.20;99.90
22114;DHT22;11223;49.968;9.062;2023-04-29T03:19:38;11.20;99.90
22114;DHT22;11223;49.968;9.062;2023-04-29T03:22:03;11.20;99.90
22114;DHT22;11223;49.968;9.062;2023-04-29T03:24:29;11.20;99.90
22114;DHT22;11223;49.968;9.062;2023-04-29T03:26:55;11.20;99.90
22114;DHT22;11223;49.968;9.062;2023-04-29T03:29:20;11.20;99.90
22114;DHT22;11223;49.968;9.062;2023-04-29T03:31:46;11.20;99.90
22114;DHT22;11223;49.968;9.062;2023-04-29T03:34:12;11.20;99.90
22114;DHT22;11223;49.968;9.062;2023-04-29T03:36:39;11.20;99.90
22114;DHT22;11223;49.968;9.062;2023-04-29T03:39:04;11.20;99.90
22114;DHT22;11223;49.968;9.062;2023-04-29T03:41:30;11.20;99.90
22114;DHT22;11223;49.968;9.062;2023-04-29T03:43:56;11.20;99.90
22114;DHT22;11223;49.968;9.062;2023-04-29T03:46:25;11.20;99.90
22114;DHT22;11223;49.968;9.062;2023-04-29T03:48:51;11.20;99.90
22114;DHT22;11223;49.968;9.062;2023-04-29T03:51:17;11.20;99.90
22114;DHT22;11223;49.968;9.062;2023-04-29T03:53:43;11.20;99.90
22114;DHT22;11223;49.968;9.062;2023-04-29T03:56:08;11.20;99.90
22114;DHT22;11223;49.968;9.062;2023-04-29T03:58:34;11.20;99.90
22114;DHT22;11223;49.968;9.062;2023-04-29T04:00:59;11.20;99.90
22114;DHT22;11223;49.968;9.062;2023-04-29T04:03:25;11.20;99.90
22114;DHT22;11223;49.968;9.062;2023-04-29T04:05:52;11.20;99.90
22114;DHT22;11223;49.968;9.062;2023-04-29T04:08:17;11.30;99.90
22114;DHT22;11223;49.968;9.062;2023-04-29T04:10:43;11.30;99.90
22114;DHT22;11223;49.968;9.062;2023-04-29T04:13:09;11.30;99.90
22114;DHT22;11223;49.968;9.062;2023-04-29T04:15:34;11.30;99.90
22114;DHT22;11223;49.968;9.062;2023-04-29T04:18:00;11.30;99.90
22114;DHT22;11223;49.968;9.062;2023-04-29T04:20:26;11.30;99.90
22114;DHT22;11223;49.968;9.062;2023-04-29T04:22:51;11.30;99.90
22114;DHT22;11223;49.968;9.062;2023-04-29T04:25:19;11.30;99.90
22114;DHT22;11223;49.968;9.062;2023-04-29T04:27:44;11.30;99.90
22114;DHT22;11223;49.968;9.062;2023-04-29T04:30:10;11.40;99.90
22114;DHT22;11223;49.968;9.062;2023-04-29T04:32:36;11.40;99.90
22114;DHT22;11223;49.968;9.062;2023-04-29T04:35:03;11.40;99.90
22114;DHT22;11223;49.968;9.062;2023-04-29T04:37:29;11.40;99.90
22114;DHT22;11223;49.968;9.062;2023-04-29T04:39:55;11.40;99.90
22114;DHT22;11223;49.968;9.062;2023-04-29T04:42:21;11.40;99.90
22114;DHT22;11223;49.968;9.062;2023-04-29T04:44:47;11.40;99.90
22114;DHT22;11223;49.968;9.062;2023-04-29T04:47:13;11.40;99.90
22114;DHT22;11223;49.968;9.062;2023-04-29T04:49:38;11.50;99.90
22114;DHT22;11223;49.968;9.062;2023-04-29T04:52:04;11.50;99.90
22114;DHT22;11223;49.968;9.062;2023-04-29T04:54:30;11.50;99.90
22114;DHT22;11223;49.968;9.062;2023-04-29T04:56:56;11.50;99.90
22114;DHT22;11223;49.968;9.062;2023-04-29T04:59:21;11.50;99.90
22114;DHT22;11223;49.968;9.062;2023-04-29T05:01:47;11.50;99.90
22114;DHT22;11223;49.968;9.062;2023-04-29T05:04:13;11.60;99.90
22114;DHT22;11223;49.968;9.062;2023-04-29T05:06:39;11.60;99.90
22114;DHT22;11223;49.968;9.062;2023-04-29T05:09:05;11.60;99.90
22114;DHT22;11223;49.968;9.062;2023-04-29T05:11:31;11.60;99.90
22114;DHT22;11223;49.968;9.062;2023-04-29T05:13:56;11.60;99.90
22114;DHT22;11223;49.968;9.062;2023-04-29T05:16:22;11.70;99.90
22114;DHT22;11223;49.968;9.062;2023-04-29T05:18:47;11.70;99.90
22114;DHT22;11223;49.968;9.062;2023-04-29T05:21:13;11.70;99.90
22114;DHT22;11223;49.968;9.062;2023-04-29T05:23:39;11.70;99.90
22114;DHT22;11223;49.968;9.062;2023-04-29T05:26:05;11.80;99.90
22114;DHT22;11223;49.968;9.062;2023-04-29T05:28:30;11.70;99.90
22114;DHT22;11223;49.968;9.062;2023-04-29T05:30:56;11.80;99.90
22114;DHT22;11223;49.968;9.062;2023-04-29T05:33:21;11.80;99.90
22114;DHT22;11223;49.968;9.062;2023-04-29T05:35:47;11.80;99.90
22114;DHT22;11223;49.968;9.062;2023-04-29T05:38:12;11.90;99.90
22114;DHT22;11223;49.968;9.062;2023-04-29T05:40:38;11.90;99.90
22114;DHT22;11223;49.968;9.062;2023-04-29T05:43:04;12.00;99.90
22114;DHT22;11223;49.968;9.062;2023-04-29T05:45:30;12.00;99.90
22114;DHT22;11223;49.968;9.062;2023-04-29T05:47:56;12.10;99.90
22114;DHT22;11223;49.968;9.062;2023-04-29T05:50:21;12.10;99.90
22114;DHT22;11223;49.968;9.062;2023-04-29T05:52:47;12.20;99.90
22114;DHT22;11223;49.968;9.062;2023-04-29T05:55:13;12.20;99.90
22114;DHT22;11223;49.968;9.062;2023-04-29T05:57:38;12.30;99.90
22114;DHT22;11223;49.968;9.062;2023-04-29T06:00:04;12.30;99.90
22114;DHT22;11223;49.968;9.062;2023-04-29T06:02:31;12.30;99.90
22114;DHT22;11223;49.968;9.062;2023-04-29T06:04:56;12.40;99.90
22114;DHT22;11223;49.968;9.062;2023-04-29T06:07:22;12.40;99.90
22114;DHT22;11223;49.968;9.062;2023-04-29T06:09:48;12.50;99.90
22114;DHT22;11223;49.968;9.062;2023-04-29T06:12:14;12.50;99.90
22114;DHT22;11223;49.968;9.062;2023-04-29T06:14:40;12.60;99.90
22114;DHT22;11223;49.968;9.062;2023-04-29T06:17:06;12.60;99.90
22114;DHT22;11223;49.968;9.062;2023-04-29T06:19:31;12.70;99.90
22114;DHT22;11223;49.968;9.062;2023-04-29T06:21:58;12.80;99.90
22114;DHT22;11223;49.968;9.062;2023-04-29T06:24:24;12.80;99.90
22114;DHT22;11223;49.968;9.062;2023-04-29T06:26:49;12.90;99.90
22114;DHT22;11223;49.968;9.062;2023-04-29T06:29:15;13.00;99.90
22114;DHT22;11223;49.968;9.062;2023-04-29T06:31:41;13.10;99.90
22114;DHT22;11223;49.968;9.062;2023-04-29T06:34:07;13.10;99.90
22114;DHT22;11223;49.968;9.062;2023-04-29T06:36:32;13.20;99.90
22114;DHT22;11223;49.968;9.062;2023-04-29T06:38:58;13.20;99.90
22114;DHT22;11223;49.968;9.062;2023-04-29T06:41:24;13.20;99.90
22114;DHT22;11223;49.968;9.062;2023-04-29T06:43:49;13.20;99.90
22114;DHT22;11223;49.968;9.062;2023-04-29T06:46:15;13.20;99.90
22114;DHT22;11223;49.968;9.062;2023-04-29T06:48:41;13.30;99.90
22114;DHT22;11223;49.968;9.062;2023-04-29T06:51:07;13.30;99.90
22114;DHT22;11223;49.968;9.062;2023-04-29T06:53:32;13.40;99.90
22114;DHT22;11223;49.968;9.062;2023-04-29T06:55:58;13.50;99.90
22114;DHT22;11223;49.968;9.062;2023-04-29T06:58:23;13.50;99.90
22114;DHT22;11223;49.968;9.062;2023-04-29T07:00:49;13.60;99.90
22114;DHT22;11223;49.968;9.062;2023-04-29T07:03:16;13.60;99.90
22114;DHT22;11223;49.968;9.062;2023-04-29T07:05:42;13.70;99.90
22114;DHT22;11223;49.968;9.062;2023-04-29T07:08:10;13.80;99.90
22114;DHT22;11223;49.968;9.062;2023-04-29T07:10:36;13.80;99.90
22114;DHT22;11223;49.968;9.062;2023-04-29T07:13:02;13.90;99.90
22114;DHT22;11223;49.968;9.062;2023-04-29T07:15:28;14.00;99.90
22114;DHT22;11223;49.968;9.062;2023-04-29T07:17:54;14.20;99.90
22114;DHT22;11223;49.968;9.062;2023-04-29T07:20:20;14.30;99.90
22114;DHT22;11223;49.968;9.062;2023-04-29T07:22:46;14.30;99.90
22114;DHT22;11223;49.968;9.062;2023-04-29T07:25:12;14.40;99.90
22114;DHT22;11223;49.968;9.062;2023-04-29T07:27:37;14.40;99.90
22114;DHT22;11223;49.968;9.062;2023-04-29T07:30:04;14.30;99.90
22114;DHT22;11223;49.968;9.062;2023-04-29T07:32:30;14.30;99.90
22114;DHT22;11223;49.968;9.062;2023-04-29T07:34:56;14.30;99.90
22114;DHT22;11223;49.968;9.062;2023-04-29T07:37:22;14.30;99.90
22114;DHT22;11223;49.968;9.062;2023-04-29T07:39:48;14.30;99.90
22114;DHT22;11223;49.968;9.062;2023-04-29T07:42:13;14.20;99.90
22114;DHT22;11223;49.968;9.062;2023-04-29T07:44:39;14.20;99.90
22114;DHT22;11223;49.968;9.062;2023-04-29T07:47:04;14.20;99.90
22114;DHT22;11223;49.968;9.062;2023-04-29T07:49:30;14.30;99.90
22114;DHT22;11223;49.968;9.062;2023-04-29T07:51:56;14.30;99.90
22114;DHT22;11223;49.968;9.062;2023-04-29T07:54:21;14.20;99.90
22114;DHT22;11223;49.968;9.062;2023-04-29T07:56:48;14.20;99.90
22114;DHT22;11223;49.968;9.062;2023-04-29T07:59:13;14.20;99.90
22114;DHT22;11223;49.968;9.062;2023-04-29T08:01:42;14.20;99.90
22114;DHT22;11223;49.968;9.062;2023-04-29T08:04:08;14.20;99.90
22114;DHT22;11223;49.968;9.062;2023-04-29T08:06:34;14.20;99.90
22114;DHT22;11223;49.968;9.062;2023-04-29T08:09:00;14.30;99.90
22114;DHT22;11223;49.968;9.062;2023-04-29T08:11:26;14.30;99.90
22114;DHT22;11223;49.968;9.062;2023-04-29T08:13:52;14.30;99.90
22114;DHT22;11223;49.968;9.062;2023-04-29T08:16:18;14.40;99.90
22114;DHT22;11223;49.968;9.062;2023-04-29T08:18:43;14.40;99.90
22114;DHT22;11223;49.968;9.062;2023-04-29T08:21:09;14.40;99.90
22114;DHT22;11223;49.968;9.062;2023-04-29T08:23:38;14.40;99.90
22114;DHT22;11223;49.968;9.062;2023-04-29T08:26:04;14.40;99.90
22114;DHT22;11223;49.968;9.062;2023-04-29T08:28:30;14.40;99.90
22114;DHT22;11223;49.968;9.062;2023-04-29T08:30:55;14.50;99.90
22114;DHT22;11223;49.968;9.062;2023-04-29T08:33:21;14.50;99.90
22114;DHT22;11223;49.968;9.062;2023-04-29T08:35:46;14.50;99.90
22114;DHT22;11223;49.968;9.062;2023-04-29T08:38:12;14.40;99.90
22114;DHT22;11223;49.968;9.062;2023-04-29T08:40:44;14.40;99.90
22114;DHT22;11223;49.968;9.062;2023-04-29T08:43:12;14.40;99.90
22114;DHT22;11223;49.968;9.062;2023-04-29T08:45:38;14.50;99.90
22114;DHT22;11223;49.968;9.062;2023-04-29T08:48:06;14.60;99.90
22114;DHT22;11223;49.968;9.062;2023-04-29T08:50:36;14.70;99.90
22114;DHT22;11223;49.968;9.062;2023-04-29T08:53:13;14.90;99.90
22114;DHT22;11223;49.968;9.062;2023-04-29T08:58:08;14.90;99.90
22114;DHT22;11223;49.968;9.062;2023-04-29T09:00:34;14.90;99.90
22114;DHT22;11223;49.968;9.062;2023-04-29T09:03:09;14.90;99.90
22114;DHT22;11223;49.968;9.062;2023-04-29T09:05:37;14.90;99.90
22114;DHT22;11223;49.968;9.062;2023-04-29T09:08:03;14.90;99.90
22114;DHT22;11223;49.968;9.062;2023-04-29T09:10:29;14.90;99.90
22114;DHT22;11223;49.968;9.062;2023-04-29T09:12:56;14.90;99.90
22114;DHT22;11223;49.968;9.062;2023-04-29T09:15:22;14.90;99.90
22114;DHT22;11223;49.968;9.062;2023-04-29T09:17:48;14.90;99.90
22114;DHT22;11223;49.968;9.062;2023-04-29T09:22:50;14.90;99.90
22114;DHT22;11223;49.968;9.062;2023-04-29T09:25:16;14.90;99.90
22114;DHT22;11223;49.968;9.062;2023-04-29T09:27:42;14.90;99.90
22114;DHT22;11223;49.968;9.062;2023-04-29T09:30:08;14.80;99.90
22114;DHT22;11223;49.968;9.062;2023-04-29T09:32:35;14.70;99.90
22114;DHT22;11223;49.968;9.062;2023-04-29T09:35:23;14.70;99.90
22114;DHT22;11223;49.968;9.062;2023-04-29T09:37:49;14.70;99.90
22114;DHT22;11223;49.968;9.062;2023-04-29T09:42:57;14.70;99.90
22114;DHT22;11223;49.968;9.062;2023-04-29T09:45:40;14.70;99.90
22114;DHT22;11223;49.968;9.062;2023-04-29T09:48:08;14.80;99.90
22114;DHT22;11223;49.968;9.062;2023-04-29T09:50:34;14.80;99.90
22114;DHT22;11223;49.968;9.062;2023-04-29T09:53:08;14.90;99.90
22114;DHT22;11223;49.968;9.062;2023-04-29T09:58:33;15.00;99.90
22114;DHT22;11223;49.968;9.062;2023-04-29T10:01:02;15.00;99.90
22114;DHT22;11223;49.968;9.062;2023-04-29T10:03:33;15.00;99.90
22114;DHT22;11223;49.968;9.062;2023-04-29T10:06:00;15.10;99.90
22114;DHT22;11223;49.968;9.062;2023-04-29T10:08:28;15.00;99.90
22114;DHT22;11223;49.968;9.062;2023-04-29T10:10:58;15.00;99.90
22114;DHT22;11223;49.968;9.062;2023-04-29T10:13:25;15.00;99.90
22114;DHT22;11223;49.968;9.062;2023-04-29T10:16:00;15.00;99.90
22114;DHT22;11223;49.968;9.062;2023-04-29T10:18:36;15.00;99.90
22114;DHT22;11223;49.968;9.062;2023-04-29T10:21:02;15.10;99.90
22114;DHT22;11223;49.968;9.062;2023-04-29T10:23:30;15.10;99.90
22114;DHT22;11223;49.968;9.062;2023-04-29T10:25:58;15.20;99.90
22114;DHT22;11223;49.968;9.062;2023-04-29T10:28:25;15.20;99.90
22114;DHT22;11223;49.968;9.062;2023-04-29T10:30:53;15.30;99.90
22114;DHT22;11223;49.968;9.062;2023-04-29T10:33:20;15.40;99.90
22114;DHT22;11223;49.968;9.062;2023-04-29T10:35:47;15.50;99.90
22114;DHT22;11223;49.968;9.062;2023-04-29T10:38:20;15.50;99.90
22114;DHT22;11223;49.968;9.062;2023-04-29T10:40:49;15.60;99.90
22114;DHT22;11223;49.968;9.062;2023-04-29T10:43:21;15.60;99.90
22114;DHT22;11223;49.968;9.062;2023-04-29T10:45:47;15.50;99.90
22114;DHT22;11223;49.968;9.062;2023-04-29T10:48:14;15.50;99.90
22114;DHT22;11223;49.968;9.062;2023-04-29T10:53:11;15.50;99.90
22114;DHT22;11223;49.968;9.062;2023-04-29T10:55:39;15.40;99.90
22114;DHT22;11223;49.968;9.062;2023-04-29T10:58:05;15.30;99.90
22114;DHT22;11223;49.968;9.062;2023-04-29T11:00:32;15.30;99.90
22114;DHT22;11223;49.968;9.062;2023-04-29T11:03:04;15.20;99.90
22114;DHT22;11223;49.968;9.062;2023-04-29T11:05:35;15.20;99.90
22114;DHT22;11223;49.968;9.062;2023-04-29T11:08:20;15.20;99.90
22114;DHT22;11223;49.968;9.062;2023-04-29T11:10:52;15.20;99.90
22114;DHT22;11223;49.968;9.062;2023-04-29T11:13:25;15.20;99.90
22114;DHT22;11223;49.968;9.062;2023-04-29T11:15:52;15.20;99.90
22114;DHT22;11223;49.968;9.062;2023-04-29T11:18:17;15.10;99.90
22114;DHT22;11223;49.968;9.062;2023-04-29T11:23:34;15.10;99.90
22114;DHT22;11223;49.968;9.062;2023-04-29T11:26:03;15.10;99.90
22114;DHT22;11223;49.968;9.062;2023-04-29T11:28:30;15.10;99.90
22114;DHT22;11223;49.968;9.062;2023-04-29T11:30:57;15.00;99.90
22114;DHT22;11223;49.968;9.062;2023-04-29T11:33:23;15.00;99.90
22114;DHT22;11223;49.968;9.062;2023-04-29T11:35:50;15.00;99.90
22114;DHT22;11223;49.968;9.062;2023-04-29T11:38:16;15.00;99.90
22114;DHT22;11223;49.968;9.062;2023-04-29T11:40:47;15.00;99.90
22114;DHT22;11223;49.968;9.062;2023-04-29T11:43:17;15.10;99.90
22114;DHT22;11223;49.968;9.062;2023-04-29T11:45:46;15.20;99.90
22114;DHT22;11223;49.968;9.062;2023-04-29T11:48:22;15.30;99.90
22114;DHT22;11223;49.968;9.062;2023-04-29T11:50:56;15.40;99.90
22114;DHT22;11223;49.968;9.062;2023-04-29T11:53:24;15.70;99.90
22114;DHT22;11223;49.968;9.062;2023-04-29T11:55:52;16.10;99.90
22114;DHT22;11223;49.968;9.062;2023-04-29T11:58:20;16.70;99.90
22114;DHT22;11223;49.968;9.062;2023-04-29T12:00:46;17.20;99.90
22114;DHT22;11223;49.968;9.062;2023-04-29T12:03:20;17.40;99.90
22114;DHT22;11223;49.968;9.062;2023-04-29T12:05:53;17.60;99.90
22114;DHT22;11223;49.968;9.062;2023-04-29T12:08:26;17.90;99.90
22114;DHT22;11223;49.968;9.062;2023-04-29T12:10:57;18.20;99.90
22114;DHT22;11223;49.968;9.062;2023-04-29T12:13:27;18.30;99.90
22114;DHT22;11223;49.968;9.062;2023-04-29T12:15:53;18.30;99.90
22114;DHT22;11223;49.968;9.062;2023-04-29T12:18:20;18.30;99.90
22114;DHT22;11223;49.968;9.062;2023-04-29T12:20:48;18.30;99.90
22114;DHT22;11223;49.968;9.062;2023-04-29T12:23:18;18.20;99.90
22114;DHT22;11223;49.968;9.062;2023-04-29T12:26:02;18.30;99.90
22114;DHT22;11223;49.968;9.062;2023-04-29T12:28:28;18.30;99.90
22114;DHT22;11223;49.968;9.062;2023-04-29T12:30:56;18.20;99.90
22114;DHT22;11223;49.968;9.062;2023-04-29T12:33:27;18.10;99.90
22114;DHT22;11223;49.968;9.062;2023-04-29T12:35:56;18.00;99.90
22114;DHT22;11223;49.968;9.062;2023-04-29T12:38:23;17.70;99.90
22114;DHT22;11223;49.968;9.062;2023-04-29T12:40:48;17.60;99.90
22114;DHT22;11223;49.968;9.062;2023-04-29T12:43:15;17.40;99.90
22114;DHT22;11223;49.968;9.062;2023-04-29T12:45:41;17.30;99.90
22114;DHT22;11223;49.968;9.062;2023-04-29T12:48:07;17.20;99.90
22114;DHT22;11223;49.968;9.062;2023-04-29T12:50:34;17.10;99.90
22114;DHT22;11223;49.968;9.062;2023-04-29T12:53:02;17.00;99.90
22114;DHT22;11223;49.968;9.062;2023-04-29T12:55:28;17.00;99.90
22114;DHT22;11223;49.968;9.062;2023-04-29T12:57:54;16.90;99.90
22114;DHT22;11223;49.968;9.062;2023-04-29T13:00:20;16.90;99.90
22114;DHT22;11223;49.968;9.062;2023-04-29T13:02:46;16.90;99.90
22114;DHT22;11223;49.968;9.062;2023-04-29T13:05:12;16.90;99.90
22114;DHT22;11223;49.968;9.062;2023-04-29T13:07:38;17.00;99.90
22114;DHT22;11223;49.968;9.062;2023-04-29T13:10:04;17.10;99.90
22114;DHT22;11223;49.968;9.062;2023-04-29T13:12:31;17.20;99.90
22114;DHT22;11223;49.968;9.062;2023-04-29T13:14:57;17.30;99.90
22114;DHT22;11223;49.968;9.062;2023-04-29T13:17:22;17.30;99.90
22114;DHT22;11223;49.968;9.062;2023-04-29T13:19:48;17.30;99.90
22114;DHT22;11223;49.968;9.062;2023-04-29T13:22:15;17.30;99.90
22114;DHT22;11223;49.968;9.062;2023-04-29T13:24:40;17.30;99.90
22114;DHT22;11223;49.968;9.062;2023-04-29T13:27:06;17.30;99.90
22114;DHT22;11223;49.968;9.062;2023-04-29T13:29:31;17.20;99.90
22114;DHT22;11223;49.968;9.062;2023-04-29T13:31:57;17.00;99.90
22114;DHT22;11223;49.968;9.062;2023-04-29T13:34:23;16.90;99.90
22114;DHT22;11223;49.968;9.062;2023-04-29T13:36:48;16.70;99.90
22114;DHT22;11223;49.968;9.062;2023-04-29T13:39:14;16.40;99.90
22114;DHT22;11223;49.968;9.062;2023-04-29T13:41:39;16.20;99.90
22114;DHT22;11223;49.968;9.062;2023-04-29T13:44:05;15.90;99.90
22114;DHT22;11223;49.968;9.062;2023-04-29T13:46:31;15.80;99.90
22114;DHT22;11223;49.968;9.062;2023-04-29T13:48:57;15.60;99.90
22114;DHT22;11223;49.968;9.062;2023-04-29T13:51:23;15.50;99.90
22114;DHT22;11223;49.968;9.062;2023-04-29T13:53:48;15.40;99.90
22114;DHT22;11223;49.968;9.062;2023-04-29T13:56:14;15.40;99.90
22114;DHT22;11223;49.968;9.062;2023-04-29T13:58:40;15.40;99.90
22114;DHT22;11223;49.968;9.062;2023-04-29T14:01:07;15.40;99.90
22114;DHT22;11223;49.968;9.062;2023-04-29T14:03:32;15.40;99.90
22114;DHT22;11223;49.968;9.062;2023-04-29T14:05:58;15.50;99.90
22114;DHT22;11223;49.968;9.062;2023-04-29T14:08:23;15.50;99.90
22114;DHT22;11223;49.968;9.062;2023-04-29T14:10:49;15.50;99.90
22114;DHT22;11223;49.968;9.062;2023-04-29T14:13:14;15.50;99.90
22114;DHT22;11223;49.968;9.062;2023-04-29T14:15:42;15.50;99.90
22114;DHT22;11223;49.968;9.062;2023-04-29T14:18:07;15.60;99.90
22114;DHT22;11223;49.968;9.062;2023-04-29T14:20:34;15.60;99.90
22114;DHT22;11223;49.968;9.062;2023-04-29T14:23:00;15.70;99.90
22114;DHT22;11223;49.968;9.062;2023-04-29T14:25:26;15.80;99.90
22114;DHT22;11223;49.968;9.062;2023-04-29T14:27:51;15.80;99.90
22114;DHT22;11223;49.968;9.062;2023-04-29T14:30:17;15.80;99.90
22114;DHT22;11223;49.968;9.062;2023-04-29T14:32:42;15.80;99.90
22114;DHT22;11223;49.968;9.062;2023-04-29T14:35:08;15.80;99.90
22114;DHT22;11223;49.968;9.062;2023-04-29T14:37:34;15.90;99.90
22114;DHT22;11223;49.968;9.062;2023-04-29T14:40:00;15.90;99.90
22114;DHT22;11223;49.968;9.062;2023-04-29T14:42:25;15.90;99.90
22114;DHT22;11223;49.968;9.062;2023-04-29T14:44:51;16.00;99.90
22114;DHT22;11223;49.968;9.062;2023-04-29T14:47:18;16.10;99.90
22114;DHT22;11223;49.968;9.062;2023-04-29T14:49:44;16.00;99.90
22114;DHT22;11223;49.968;9.062;2023-04-29T14:52:09;16.00;99.90
22114;DHT22;11223;49.968;9.062;2023-04-29T14:54:35;16.00;99.90
22114;DHT22;11223;49.968;9.062;2023-04-29T14:57:01;16.00;99.90
22114;DHT22;11223;49.968;9.062;2023-04-29T14:59:26;15.90;99.90
22114;DHT22;11223;49.968;9.062;2023-04-29T15:01:54;15.80;99.90
22114;DHT22;11223;49.968;9.062;2023-04-29T15:04:20;15.70;99.90
22114;DHT22;11223;49.968;9.062;2023-04-29T15:06:47;15.70;99.90
22114;DHT22;11223;49.968;9.062;2023-04-29T15:09:12;15.50;99.90
22114;DHT22;11223;49.968;9.062;2023-04-29T15:11:38;15.40;99.90
22114;DHT22;11223;49.968;9.062;2023-04-29T15:14:04;15.30;99.90
22114;DHT22;11223;49.968;9.062;2023-04-29T15:16:30;15.20;99.90
22114;DHT22;11223;49.968;9.062;2023-04-29T15:18:56;15.10;99.90
22114;DHT22;11223;49.968;9.062;2023-04-29T15:21:22;15.10;99.90
22114;DHT22;11223;49.968;9.062;2023-04-29T15:23:47;15.00;99.90
22114;DHT22;11223;49.968;9.062;2023-04-29T15:26:13;14.90;99.90
22114;DHT22;11223;49.968;9.062;2023-04-29T15:28:39;14.80;99.90
22114;DHT22;11223;49.968;9.062;2023-04-29T15:31:05;14.80;99.90
22114;DHT22;11223;49.968;9.062;2023-04-29T15:33:30;14.70;99.90
22114;DHT22;11223;49.968;9.062;2023-04-29T15:35:57;14.60;99.90
22114;DHT22;11223;49.968;9.062;2023-04-29T15:38:23;14.60;99.90
22114;DHT22;11223;49.968;9.062;2023-04-29T15:40:49;14.50;99.90
22114;DHT22;11223;49.968;9.062;2023-04-29T15:43:15;14.50;99.90
22114;DHT22;11223;49.968;9.062;2023-04-29T15:45:40;14.50;99.90
22114;DHT22;11223;49.968;9.062;2023-04-29T15:48:07;14.50;99.90
22114;DHT22;11223;49.968;9.062;2023-04-29T15:50:32;14.40;99.90
22114;DHT22;11223;49.968;9.062;2023-04-29T15:52:58;14.40;99.90
22114;DHT22;11223;49.968;9.062;2023-04-29T15:55:24;14.50;99.90
22114;DHT22;11223;49.968;9.062;2023-04-29T15:57:50;14.50;99.90
22114;DHT22;11223;49.968;9.062;2023-04-29T16:00:16;14.40;99.90